sensor_id;sensor_type;location;lat;lon;timestamp;temperature;humidity
47090;DHT22;32840;52.516;13.294;2023-02-12T00:00:57;8.70;99.90
47090;DHT22;32840;52.516;13.294;2023-02-12T00:03:42;8.70;99.90
47090;DHT22;32840;52.516;13.294;2023-02-12T00:06:27;8.70;99.90
47090;DHT22;32840;52.516;13.294;2023-02-12T00:09:11;8.60;99.90
47090;DHT22;32840;52.516;13.294;2023-02-12T00:11:56;8.60;99.90
47090;DHT22;32840;52.516;13.294;2023-02-12T00:14:41;8.60;99.90
47090;DHT22;32840;52.516;13.294;2023-02-12T00:17:26;8.60;99.90
47090;DHT22;32840;52.516;13.294;2023-02-12T00:20:11;8.60;99.90
47090;DHT22;32840;52.516;13.294;2023-02-12T00:22:56;8.70;99.90
47090;DHT22;32840;52.516;13.294;2023-02-12T00:25:42;8.70;99.90
47090;DHT22;32840;52.516;13.294;2023-02-12T00:28:27;8.80;99.90
47090;DHT22;32840;52.516;13.294;2023-02-12T00:31:21;8.80;99.90
47090;DHT22;32840;52.516;13.294;2023-02-12T00:34:06;8.80;99.90
47090;DHT22;32840;52.516;13.294;2023-02-12T00:36:51;8.80;99.90
47090;DHT22;32840;52.516;13.294;2023-02-12T00:39:36;8.70;99.90
47090;DHT22;32840;52.516;13.294;2023-02-12T00:42:21;8.70;99.90
47090;DHT22;32840;52.516;13.294;2023-02-12T00:45:06;8.80;99.90
47090;DHT22;32840;52.516;13.294;2023-02-12T00:47:51;8.80;99.90
47090;DHT22;32840;52.516;13.294;2023-02-12T00:50:36;8.80;99.90
47090;DHT22;32840;52.516;13.294;2023-02-12T00:53:21;8.80;99.90
47090;DHT22;32840;52.516;13.294;2023-02-12T00:56:06;8.90;99.90
47090;DHT22;32840;52.516;13.294;2023-02-12T00:58:52;8.90;99.90
47090;DHT22;32840;52.516;13.294;2023-02-12T01:01:37;8.80;99.90
47090;DHT22;32840;52.516;13.294;2023-02-12T01:04:22;8.90;99.90
47090;DHT22;32840;52.516;13.294;2023-02-12T01:07:07;8.70;99.90
47090;DHT22;32840;52.516;13.294;2023-02-12T01:09:52;8.70;99.90
47090;DHT22;32840;52.516;13.294;2023-02-12T01:12:37;8.70;99.90
47090;DHT22;32840;52.516;13.294;2023-02-12T01:15:22;8.70;99.90
47090;DHT22;32840;52.516;13.294;2023-02-12T01:18:07;8.70;99.90
47090;DHT22;32840;52.516;13.294;2023-02-12T01:20:52;8.70;99.90
47090;DHT22;32840;52.516;13.294;2023-02-12T01:23:37;8.70;99.90
47090;DHT22;32840;52.516;13.294;2023-02-12T01:26:22;8.80;99.90
47090;DHT22;32840;52.516;13.294;2023-02-12T01:29:07;8.80;99.90
47090;DHT22;32840;52.516;13.294;2023-02-12T01:31:52;8.90;99.90
47090;DHT22;32840;52.516;13.294;2023-02-12T01:34:37;8.90;99.90
47090;DHT22;32840;52.516;13.294;2023-02-12T01:37:22;8.90;99.90
47090;DHT22;32840;52.516;13.294;2023-02-12T01:40:08;8.90;99.90
47090;DHT22;32840;52.516;13.294;2023-02-12T01:42:53;8.90;99.90
47090;DHT22;32840;52.516;13.294;2023-02-12T01:45:48;8.80;99.90
47090;DHT22;32840;52.516;13.294;2023-02-12T01:48:39;8.80;99.90
47090;DHT22;32840;52.516;13.294;2023-02-12T01:51:26;8.90;99.90
47090;DHT22;32840;52.516;13.294;2023-02-12T01:54:15;8.90;99.90
47090;DHT22;32840;52.516;13.294;2023-02-12T01:57:02;8.80;99.90
47090;DHT22;32840;52.516;13.294;2023-02-12T01:59:51;8.90;99.90
47090;DHT22;32840;52.516;13.294;2023-02-12T02:02:37;8.90;99.90
47090;DHT22;32840;52.516;13.294;2023-02-12T02:05:42;8.90;99.90
47090;DHT22;32840;52.516;13.294;2023-02-12T02:08:27;8.90;99.90
47090;DHT22;32840;52.516;13.294;2023-02-12T02:11:12;8.90;99.90
47090;DHT22;32840;52.516;13.294;2023-02-12T02:14:16;8.70;99.90
47090;DHT22;32840;52.516;13.294;2023-02-12T02:21:02;8.50;99.90
47090;DHT22;32840;52.516;13.294;2023-02-12T02:30:28;8.40;99.90
47090;DHT22;32840;52.516;13.294;2023-02-12T02:36:22;8.50;99.90
47090;DHT22;32840;52.516;13.294;2023-02-12T02:39:19;8.50;99.90
47090;DHT22;32840;52.516;13.294;2023-02-12T02:45:30;8.30;99.90
47090;DHT22;32840;52.516;13.294;2023-02-12T02:48:25;8.30;99.90
47090;DHT22;32840;52.516;13.294;2023-02-12T02:51:14;8.30;99.90
47090;DHT22;32840;52.516;13.294;2023-02-12T02:54:13;8.20;99.90
47090;DHT22;32840;52.516;13.294;2023-02-12T02:57:06;8.30;99.90
47090;DHT22;32840;52.516;13.294;2023-02-12T02:59:55;8.20;99.90
47090;DHT22;32840;52.516;13.294;2023-02-12T03:02:49;8.30;99.90
47090;DHT22;32840;52.516;13.294;2023-02-12T03:05:42;8.20;99.90
47090;DHT22;32840;52.516;13.294;2023-02-12T03:08:30;8.20;99.90
47090;DHT22;32840;52.516;13.294;2023-02-12T03:11:29;8.10;99.90
47090;DHT22;32840;52.516;13.294;2023-02-12T03:14:22;8.20;99.90
47090;DHT22;32840;52.516;13.294;2023-02-12T03:17:28;8.10;99.90
47090;DHT22;32840;52.516;13.294;2023-02-12T03:20:35;8.00;99.90
47090;DHT22;32840;52.516;13.294;2023-02-12T03:23:32;8.10;99.90
47090;DHT22;32840;52.516;13.294;2023-02-12T03:26:30;8.10;99.90
47090;DHT22;32840;52.516;13.294;2023-02-12T03:29:17;8.10;99.90
47090;DHT22;32840;52.516;13.294;2023-02-12T03:32:34;8.10;99.90
47090;DHT22;32840;52.516;13.294;2023-02-12T03:35:45;8.20;99.90
47090;DHT22;32840;52.516;13.294;2023-02-12T03:38:45;8.20;99.90
47090;DHT22;32840;52.516;13.294;2023-02-12T03:41:38;8.20;99.90
47090;DHT22;32840;52.516;13.294;2023-02-12T03:51:03;8.20;99.90
47090;DHT22;32840;52.516;13.294;2023-02-12T03:53:48;8.30;99.90
47090;DHT22;32840;52.516;13.294;2023-02-12T03:56:41;8.30;99.90
47090;DHT22;32840;52.516;13.294;2023-02-12T03:59:28;8.30;99.90
47090;DHT22;32840;52.516;13.294;2023-02-12T04:02:15;8.30;99.90
47090;DHT22;32840;52.516;13.294;2023-02-12T04:05:05;8.20;99.90
47090;DHT22;32840;52.516;13.294;2023-02-12T04:07:51;8.20;99.90
47090;DHT22;32840;52.516;13.294;2023-02-12T04:10:50;8.20;99.90
47090;DHT22;32840;52.516;13.294;2023-02-12T04:32:19;8.20;99.90
47090;DHT22;32840;52.516;13.294;2023-02-12T04:38:21;8.10;99.90
47090;DHT22;32840;52.516;13.294;2023-02-12T04:41:09;8.10;99.90
47090;DHT22;32840;52.516;13.294;2023-02-12T04:43:53;8.10;99.90
47090;DHT22;32840;52.516;13.294;2023-02-12T04:46:38;8.10;99.90
47090;DHT22;32840;52.516;13.294;2023-02-12T04:49:24;8.00;99.90
47090;DHT22;32840;52.516;13.294;2023-02-12T04:52:09;8.00;99.90
47090;DHT22;32840;52.516;13.294;2023-02-12T04:54:54;8.00;99.90
47090;DHT22;32840;52.516;13.294;2023-02-12T04:57:39;8.00;99.90
47090;DHT22;32840;52.516;13.294;2023-02-12T05:00:23;8.10;99.90
47090;DHT22;32840;52.516;13.294;2023-02-12T05:03:08;8.10;99.90
47090;DHT22;32840;52.516;13.294;2023-02-12T05:05:55;8.10;99.90
47090;DHT22;32840;52.516;13.294;2023-02-12T05:08:40;8.10;99.90
47090;DHT22;32840;52.516;13.294;2023-02-12T05:11:25;8.10;99.90
47090;DHT22;32840;52.516;13.294;2023-02-12T05:14:11;8.20;99.90
47090;DHT22;32840;52.516;13.294;2023-02-12T05:16:55;8.10;99.90
47090;DHT22;32840;52.516;13.294;2023-02-12T05:19:40;8.10;99.90
47090;DHT22;32840;52.516;13.294;2023-02-12T05:22:25;8.10;99.90
47090;DHT22;32840;52.516;13.294;2023-02-12T05:25:10;8.10;99.90
47090;DHT22;32840;52.516;13.294;2023-02-12T05:27:55;8.10;99.90
47090;DHT22;32840;52.516;13.294;2023-02-12T05:30:40;8.10;99.90
47090;DHT22;32840;52.516;13.294;2023-02-12T05:33:25;8.20;99.90
47090;DHT22;32840;52.516;13.294;2023-02-12T05:36:32;8.20;99.90
47090;DHT22;32840;52.516;13.294;2023-02-12T05:39:17;8.20;99.90
47090;DHT22;32840;52.516;13.294;2023-02-12T05:42:02;8.20;99.90
47090;DHT22;32840;52.516;13.294;2023-02-12T05:44:48;8.30;99.90
47090;DHT22;32840;52.516;13.294;2023-02-12T05:47:33;8.40;99.90
47090;DHT22;32840;52.516;13.294;2023-02-12T05:50:18;8.40;99.90
47090;DHT22;32840;52.516;13.294;2023-02-12T05:53:03;8.40;99.90
47090;DHT22;32840;52.516;13.294;2023-02-12T05:55:48;8.30;99.90
47090;DHT22;32840;52.516;13.294;2023-02-12T05:58:32;8.30;99.90
47090;DHT22;32840;52.516;13.294;2023-02-12T06:01:26;8.30;99.90
47090;DHT22;32840;52.516;13.294;2023-02-12T06:04:24;8.30;99.90
47090;DHT22;32840;52.516;13.294;2023-02-12T06:07:09;8.30;99.90
47090;DHT22;32840;52.516;13.294;2023-02-12T06:09:53;8.40;99.90
47090;DHT22;32840;52.516;13.294;2023-02-12T06:12:38;8.50;99.90
47090;DHT22;32840;52.516;13.294;2023-02-12T06:15:23;8.50;99.90
47090;DHT22;32840;52.516;13.294;2023-02-12T06:18:08;8.40;99.90
47090;DHT22;32840;52.516;13.294;2023-02-12T06:20:53;8.30;99.90
47090;DHT22;32840;52.516;13.294;2023-02-12T06:23:38;8.30;99.90
47090;DHT22;32840;52.516;13.294;2023-02-12T06:26:23;8.30;99.90
47090;DHT22;32840;52.516;13.294;2023-02-12T06:29:09;8.30;99.90
47090;DHT22;32840;52.516;13.294;2023-02-12T06:31:53;8.20;99.90
47090;DHT22;32840;52.516;13.294;2023-02-12T06:34:39;8.20;99.90
47090;DHT22;32840;52.516;13.294;2023-02-12T06:37:23;8.20;99.90
47090;DHT22;32840;52.516;13.294;2023-02-12T06:40:10;8.20;99.90
47090;DHT22;32840;52.516;13.294;2023-02-12T06:42:55;8.20;99.90
47090;DHT22;32840;52.516;13.294;2023-02-12T06:45:40;8.20;99.90
47090;DHT22;32840;52.516;13.294;2023-02-12T06:48:24;8.30;99.90
47090;DHT22;32840;52.516;13.294;2023-02-12T06:51:11;8.30;99.90
47090;DHT22;32840;52.516;13.294;2023-02-12T06:53:57;8.20;99.90
47090;DHT22;32840;52.516;13.294;2023-02-12T06:56:42;8.20;99.90
47090;DHT22;32840;52.516;13.294;2023-02-12T06:59:30;8.20;99.90
47090;DHT22;32840;52.516;13.294;2023-02-12T07:02:16;8.20;99.90
47090;DHT22;32840;52.516;13.294;2023-02-12T07:05:00;8.30;99.90
47090;DHT22;32840;52.516;13.294;2023-02-12T07:07:45;8.30;99.90
47090;DHT22;32840;52.516;13.294;2023-02-12T07:10:30;8.40;99.90
47090;DHT22;32840;52.516;13.294;2023-02-12T07:13:15;8.50;99.90
47090;DHT22;32840;52.516;13.294;2023-02-12T07:16:12;8.50;99.90
47090;DHT22;32840;52.516;13.294;2023-02-12T07:18:58;8.60;99.90
47090;DHT22;32840;52.516;13.294;2023-02-12T07:21:43;8.60;99.90
47090;DHT22;32840;52.516;13.294;2023-02-12T07:24:29;8.50;99.90
47090;DHT22;32840;52.516;13.294;2023-02-12T07:27:14;8.40;99.90
47090;DHT22;32840;52.516;13.294;2023-02-12T07:29:59;8.40;99.90
47090;DHT22;32840;52.516;13.294;2023-02-12T07:32:44;8.50;99.90
47090;DHT22;32840;52.516;13.294;2023-02-12T07:35:28;8.60;99.90
47090;DHT22;32840;52.516;13.294;2023-02-12T07:38:14;8.60;99.90
47090;DHT22;32840;52.516;13.294;2023-02-12T07:41:10;8.50;99.90
47090;DHT22;32840;52.516;13.294;2023-02-12T07:44:00;8.50;99.90
47090;DHT22;32840;52.516;13.294;2023-02-12T07:46:47;8.60;99.90
47090;DHT22;32840;52.516;13.294;2023-02-12T07:49:32;8.70;99.90
47090;DHT22;32840;52.516;13.294;2023-02-12T07:52:17;8.80;99.90
47090;DHT22;32840;52.516;13.294;2023-02-12T07:55:02;8.70;99.90
47090;DHT22;32840;52.516;13.294;2023-02-12T07:57:47;8.70;99.90
47090;DHT22;32840;52.516;13.294;2023-02-12T08:00:32;8.70;99.90
47090;DHT22;32840;52.516;13.294;2023-02-12T08:03:16;8.70;99.90
47090;DHT22;32840;52.516;13.294;2023-02-12T08:06:07;8.70;99.90
47090;DHT22;32840;52.516;13.294;2023-02-12T08:08:54;8.70;99.90
47090;DHT22;32840;52.516;13.294;2023-02-12T08:11:40;8.80;99.90
47090;DHT22;32840;52.516;13.294;2023-02-12T08:14:26;8.80;99.90
47090;DHT22;32840;52.516;13.294;2023-02-12T08:17:11;8.80;99.90
47090;DHT22;32840;52.516;13.294;2023-02-12T08:19:56;8.80;99.90
47090;DHT22;32840;52.516;13.294;2023-02-12T08:22:40;8.90;99.90
47090;DHT22;32840;52.516;13.294;2023-02-12T08:25:25;9.00;99.90
47090;DHT22;32840;52.516;13.294;2023-02-12T08:28:11;9.10;99.90
47090;DHT22;32840;52.516;13.294;2023-02-12T08:31:02;9.10;99.90
47090;DHT22;32840;52.516;13.294;2023-02-12T08:33:49;9.00;99.90
47090;DHT22;32840;52.516;13.294;2023-02-12T08:36:38;9.00;99.90
47090;DHT22;32840;52.516;13.294;2023-02-12T08:39:25;9.10;99.90
47090;DHT22;32840;52.516;13.294;2023-02-12T08:42:10;9.20;99.90
47090;DHT22;32840;52.516;13.294;2023-02-12T08:44:55;9.30;99.90
47090;DHT22;32840;52.516;13.294;2023-02-12T08:47:39;9.30;99.90
47090;DHT22;32840;52.516;13.294;2023-02-12T08:50:24;9.30;99.90
47090;DHT22;32840;52.516;13.294;2023-02-12T08:53:09;9.30;99.90
47090;DHT22;32840;52.516;13.294;2023-02-12T08:55:54;9.40;99.90
47090;DHT22;32840;52.516;13.294;2023-02-12T08:58:39;9.50;99.90
47090;DHT22;32840;52.516;13.294;2023-02-12T09:01:26;9.50;99.90
47090;DHT22;32840;52.516;13.294;2023-02-12T09:04:23;9.50;99.90
47090;DHT22;32840;52.516;13.294;2023-02-12T09:07:08;9.50;99.90
47090;DHT22;32840;52.516;13.294;2023-02-12T09:09:53;9.50;99.90
47090;DHT22;32840;52.516;13.294;2023-02-12T09:12:38;9.40;99.90
47090;DHT22;32840;52.516;13.294;2023-02-12T09:15:23;9.40;99.90
47090;DHT22;32840;52.516;13.294;2023-02-12T09:18:09;9.50;99.90
47090;DHT22;32840;52.516;13.294;2023-02-12T09:21:00;9.50;99.90
47090;DHT22;32840;52.516;13.294;2023-02-12T09:23:45;9.60;99.90
47090;DHT22;32840;52.516;13.294;2023-02-12T09:26:30;9.60;99.90
47090;DHT22;32840;52.516;13.294;2023-02-12T09:29:15;9.60;99.90
47090;DHT22;32840;52.516;13.294;2023-02-12T09:32:01;9.70;99.90
47090;DHT22;32840;52.516;13.294;2023-02-12T09:34:49;9.70;99.90
47090;DHT22;32840;52.516;13.294;2023-02-12T09:37:40;9.70;99.90
47090;DHT22;32840;52.516;13.294;2023-02-12T09:44:45;9.90;99.90
47090;DHT22;32840;52.516;13.294;2023-02-12T09:50:55;9.80;99.90
47090;DHT22;32840;52.516;13.294;2023-02-12T09:53:44;10.00;99.90
47090;DHT22;32840;52.516;13.294;2023-02-12T09:56:34;10.00;99.90
47090;DHT22;32840;52.516;13.294;2023-02-12T09:59:51;9.90;99.90
47090;DHT22;32840;52.516;13.294;2023-02-12T10:02:39;9.80;99.90
47090;DHT22;32840;52.516;13.294;2023-02-12T10:05:27;9.80;99.90
47090;DHT22;32840;52.516;13.294;2023-02-12T10:08:23;9.90;99.90
47090;DHT22;32840;52.516;13.294;2023-02-12T10:11:34;10.00;99.90
47090;DHT22;32840;52.516;13.294;2023-02-12T10:20:51;10.00;99.90
47090;DHT22;32840;52.516;13.294;2023-02-12T10:26:39;9.90;99.90
47090;DHT22;32840;52.516;13.294;2023-02-12T10:29:30;9.80;99.90
47090;DHT22;32840;52.516;13.294;2023-02-12T10:32:35;9.80;99.90
47090;DHT22;32840;52.516;13.294;2023-02-12T10:35:22;9.80;99.90
47090;DHT22;32840;52.516;13.294;2023-02-12T10:38:41;9.80;99.90
47090;DHT22;32840;52.516;13.294;2023-02-12T10:41:29;9.70;99.90
47090;DHT22;32840;52.516;13.294;2023-02-12T10:44:15;9.70;99.90
47090;DHT22;32840;52.516;13.294;2023-02-12T10:47:00;9.80;99.90
47090;DHT22;32840;52.516;13.294;2023-02-12T10:49:57;9.90;99.90
47090;DHT22;32840;52.516;13.294;2023-02-12T10:52:51;10.00;99.90
47090;DHT22;32840;52.516;13.294;2023-02-12T10:55:38;10.00;99.90
47090;DHT22;32840;52.516;13.294;2023-02-12T10:58:23;10.00;99.90
47090;DHT22;32840;52.516;13.294;2023-02-12T11:01:37;10.00;99.90
47090;DHT22;32840;52.516;13.294;2023-02-12T11:04:27;10.00;99.90
47090;DHT22;32840;52.516;13.294;2023-02-12T11:07:13;10.00;99.90
47090;DHT22;32840;52.516;13.294;2023-02-12T11:09:58;10.00;99.90
47090;DHT22;32840;52.516;13.294;2023-02-12T11:12:43;10.00;99.90
47090;DHT22;32840;52.516;13.294;2023-02-12T11:15:45;9.90;99.90
47090;DHT22;32840;52.516;13.294;2023-02-12T11:18:31;10.00;99.90
47090;DHT22;32840;52.516;13.294;2023-02-12T11:21:22;10.00;99.90
47090;DHT22;32840;52.516;13.294;2023-02-12T11:24:31;9.90;99.90
47090;DHT22;32840;52.516;13.294;2023-02-12T11:27:31;9.90;99.90
47090;DHT22;32840;52.516;13.294;2023-02-12T11:30:21;9.80;99.90
47090;DHT22;32840;52.516;13.294;2023-02-12T11:33:31;9.80;99.90
47090;DHT22;32840;52.516;13.294;2023-02-12T11:36:24;9.80;99.90
47090;DHT22;32840;52.516;13.294;2023-02-12T11:42:16;9.90;99.90
47090;DHT22;32840;52.516;13.294;2023-02-12T11:45:02;10.00;99.90
47090;DHT22;32840;52.516;13.294;2023-02-12T11:47:48;10.00;99.90
47090;DHT22;32840;52.516;13.294;2023-02-12T11:50:35;10.00;99.90
47090;DHT22;32840;52.516;13.294;2023-02-12T11:53:33;10.00;99.90
47090;DHT22;32840;52.516;13.294;2023-02-12T11:56:19;10.00;99.90
47090;DHT22;32840;52.516;13.294;2023-02-12T12:02:37;10.10;99.90
47090;DHT22;32840;52.516;13.294;2023-02-12T12:05:37;10.00;99.90
47090;DHT22;32840;52.516;13.294;2023-02-12T12:08:26;9.80;99.90
47090;DHT22;32840;52.516;13.294;2023-02-12T12:17:54;9.80;99.90
47090;DHT22;32840;52.516;13.294;2023-02-12T12:24:19;9.80;99.90
47090;DHT22;32840;52.516;13.294;2023-02-12T12:31:08;9.80;99.90
47090;DHT22;32840;52.516;13.294;2023-02-12T12:34:09;10.00;99.90
47090;DHT22;32840;52.516;13.294;2023-02-12T12:40:33;10.10;99.90
47090;DHT22;32840;52.516;13.294;2023-02-12T12:43:36;10.10;99.90
47090;DHT22;32840;52.516;13.294;2023-02-12T12:52:34;10.30;99.90
47090;DHT22;32840;52.516;13.294;2023-02-12T12:56:00;10.10;99.90
47090;DHT22;32840;52.516;13.294;2023-02-12T13:05:46;10.20;99.90
47090;DHT22;32840;52.516;13.294;2023-02-12T13:11:33;10.20;99.90
47090;DHT22;32840;52.516;13.294;2023-02-12T13:17:46;9.90;99.90
47090;DHT22;32840;52.516;13.294;2023-02-12T13:20:37;9.90;99.90
47090;DHT22;32840;52.516;13.294;2023-02-12T13:26:54;10.10;99.90
47090;DHT22;32840;52.516;13.294;2023-02-12T13:29:52;10.20;99.90
47090;DHT22;32840;52.516;13.294;2023-02-12T13:32:44;10.30;99.90
47090;DHT22;32840;52.516;13.294;2023-02-12T13:35:32;10.30;99.90
47090;DHT22;32840;52.516;13.294;2023-02-12T13:38:25;10.40;99.90
47090;DHT22;32840;52.516;13.294;2023-02-12T13:41:15;10.40;99.90
47090;DHT22;32840;52.516;13.294;2023-02-12T13:45:12;10.50;99.90
47090;DHT22;32840;52.516;13.294;2023-02-12T13:56:21;10.50;99.90
47090;DHT22;32840;52.516;13.294;2023-02-12T14:05:29;10.90;99.90
47090;DHT22;32840;52.516;13.294;2023-02-12T14:08:40;11.00;99.90
47090;DHT22;32840;52.516;13.294;2023-02-12T14:11:25;11.00;99.90
47090;DHT22;32840;52.516;13.294;2023-02-12T14:14:10;11.10;99.90
47090;DHT22;32840;52.516;13.294;2023-02-12T14:16:55;11.10;99.90
47090;DHT22;32840;52.516;13.294;2023-02-12T14:25:35;11.10;99.90
47090;DHT22;32840;52.516;13.294;2023-02-12T14:28:52;11.10;99.90
47090;DHT22;32840;52.516;13.294;2023-02-12T14:31:38;11.20;99.90
47090;DHT22;32840;52.516;13.294;2023-02-12T14:37:16;11.20;99.90
47090;DHT22;32840;52.516;13.294;2023-02-12T14:43:38;11.30;99.90
47090;DHT22;32840;52.516;13.294;2023-02-12T14:46:51;11.20;99.90
47090;DHT22;32840;52.516;13.294;2023-02-12T14:49:39;11.30;99.90
47090;DHT22;32840;52.516;13.294;2023-02-12T14:52:29;11.30;99.90
47090;DHT22;32840;52.516;13.294;2023-02-12T14:55:24;11.30;99.90
47090;DHT22;32840;52.516;13.294;2023-02-12T14:58:42;11.30;99.90
47090;DHT22;32840;52.516;13.294;2023-02-12T15:01:37;11.30;99.90
47090;DHT22;32840;52.516;13.294;2023-02-12T15:04:27;11.30;99.90
47090;DHT22;32840;52.516;13.294;2023-02-12T15:07:22;11.20;99.90
47090;DHT22;32840;52.516;13.294;2023-02-12T15:10:17;11.20;99.90
47090;DHT22;32840;52.516;13.294;2023-02-12T15:13:28;11.10;99.90
47090;DHT22;32840;52.516;13.294;2023-02-12T15:22:21;11.10;99.90
47090;DHT22;32840;52.516;13.294;2023-02-12T15:25:28;11.00;99.90
47090;DHT22;32840;52.516;13.294;2023-02-12T15:28:24;11.00;99.90
47090;DHT22;32840;52.516;13.294;2023-02-12T15:31:19;11.00;99.90
47090;DHT22;32840;52.516;13.294;2023-02-12T15:34:06;11.00;99.90
47090;DHT22;32840;52.516;13.294;2023-02-12T15:36:51;10.90;99.90
47090;DHT22;32840;52.516;13.294;2023-02-12T15:39:43;10.90;99.90
47090;DHT22;32840;52.516;13.294;2023-02-12T15:42:32;10.90;99.90
47090;DHT22;32840;52.516;13.294;2023-02-12T15:45:23;10.90;99.90
47090;DHT22;32840;52.516;13.294;2023-02-12T15:51:26;10.80;99.90
47090;DHT22;32840;52.516;13.294;2023-02-12T15:54:14;10.80;99.90
47090;DHT22;32840;52.516;13.294;2023-02-12T15:57:13;10.80;99.90
47090;DHT22;32840;52.516;13.294;2023-02-12T16:00:06;10.70;99.90
47090;DHT22;32840;52.516;13.294;2023-02-12T16:02:51;10.70;99.90
47090;DHT22;32840;52.516;13.294;2023-02-12T16:05:36;10.70;99.90
47090;DHT22;32840;52.516;13.294;2023-02-12T16:08:23;10.70;99.90
47090;DHT22;32840;52.516;13.294;2023-02-12T16:11:09;10.70;99.90
47090;DHT22;32840;52.516;13.294;2023-02-12T16:14:21;10.70;99.90
47090;DHT22;32840;52.516;13.294;2023-02-12T16:17:19;10.70;99.90
47090;DHT22;32840;52.516;13.294;2023-02-12T16:20:19;10.70;99.90
47090;DHT22;32840;52.516;13.294;2023-02-12T16:23:07;10.70;99.90
47090;DHT22;32840;52.516;13.294;2023-02-12T16:25:56;10.70;99.90
47090;DHT22;32840;52.516;13.294;2023-02-12T16:28:46;10.70;99.90
47090;DHT22;32840;52.516;13.294;2023-02-12T16:31:33;10.60;99.90
47090;DHT22;32840;52.516;13.294;2023-02-12T16:34:31;10.60;99.90
47090;DHT22;32840;52.516;13.294;2023-02-12T16:40:25;10.60;99.90
47090;DHT22;32840;52.516;13.294;2023-02-12T16:43:22;10.60;99.90
47090;DHT22;32840;52.516;13.294;2023-02-12T16:46:08;10.60;99.90
47090;DHT22;32840;52.516;13.294;2023-02-12T16:48:55;10.60;99.90
47090;DHT22;32840;52.516;13.294;2023-02-12T16:51:40;10.50;99.90
47090;DHT22;32840;52.516;13.294;2023-02-12T16:54:31;10.50;99.90
47090;DHT22;32840;52.516;13.294;2023-02-12T16:57:16;10.50;99.90
47090;DHT22;32840;52.516;13.294;2023-02-12T17:00:04;10.40;99.90
47090;DHT22;32840;52.516;13.294;2023-02-12T17:02:49;10.40;99.90
47090;DHT22;32840;52.516;13.294;2023-02-12T17:05:35;10.40;99.90
47090;DHT22;32840;52.516;13.294;2023-02-12T17:08:21;10.50;99.90
47090;DHT22;32840;52.516;13.294;2023-02-12T17:11:09;10.50;99.90
47090;DHT22;32840;52.516;13.294;2023-02-12T17:13:56;10.50;99.90
47090;DHT22;32840;52.516;13.294;2023-02-12T17:16:41;10.50;99.90
47090;DHT22;32840;52.516;13.294;2023-02-12T17:19:26;10.50;99.90
47090;DHT22;32840;52.516;13.294;2023-02-12T17:22:19;10.50;99.90
47090;DHT22;32840;52.516;13.294;2023-02-12T17:25:04;10.40;99.90
47090;DHT22;32840;52.516;13.294;2023-02-12T17:27:57;10.50;99.90
47090;DHT22;32840;52.516;13.294;2023-02-12T17:30:43;10.50;99.90
47090;DHT22;32840;52.516;13.294;2023-02-12T17:33:28;10.40;99.90
47090;DHT22;32840;52.516;13.294;2023-02-12T17:36:13;10.40;99.90
47090;DHT22;32840;52.516;13.294;2023-02-12T17:38:59;10.40;99.90
47090;DHT22;32840;52.516;13.294;2023-02-12T17:41:45;10.40;99.90
47090;DHT22;32840;52.516;13.294;2023-02-12T17:44:30;10.40;99.90
47090;DHT22;32840;52.516;13.294;2023-02-12T17:47:15;10.30;99.90
47090;DHT22;32840;52.516;13.294;2023-02-12T17:50:01;10.30;99.90
47090;DHT22;32840;52.516;13.294;2023-02-12T17:52:45;10.30;99.90
47090;DHT22;32840;52.516;13.294;2023-02-12T17:55:30;10.20;99.90
47090;DHT22;32840;52.516;13.294;2023-02-12T17:58:18;10.20;99.90
47090;DHT22;32840;52.516;13.294;2023-02-12T18:01:08;10.20;99.90
47090;DHT22;32840;52.516;13.294;2023-02-12T18:03:56;10.30;99.90
47090;DHT22;32840;52.516;13.294;2023-02-12T18:06:42;10.20;99.90
47090;DHT22;32840;52.516;13.294;2023-02-12T18:09:26;10.10;99.90
47090;DHT22;32840;52.516;13.294;2023-02-12T18:12:11;10.00;99.90
47090;DHT22;32840;52.516;13.294;2023-02-12T18:14:57;10.10;99.90
47090;DHT22;32840;52.516;13.294;2023-02-12T18:17:42;10.10;99.90
47090;DHT22;32840;52.516;13.294;2023-02-12T18:20:28;10.10;99.90
47090;DHT22;32840;52.516;13.294;2023-02-12T18:23:13;10.10;99.90
47090;DHT22;32840;52.516;13.294;2023-02-12T18:26:00;10.10;99.90
47090;DHT22;32840;52.516;13.294;2023-02-12T18:28:47;10.00;99.90
47090;DHT22;32840;52.516;13.294;2023-02-12T18:31:32;10.00;99.90
47090;DHT22;32840;52.516;13.294;2023-02-12T18:34:17;10.00;99.90
47090;DHT22;32840;52.516;13.294;2023-02-12T18:37:07;10.00;99.90
47090;DHT22;32840;52.516;13.294;2023-02-12T18:39:52;10.00;99.90
47090;DHT22;32840;52.516;13.294;2023-02-12T18:42:38;10.00;99.90
47090;DHT22;32840;52.516;13.294;2023-02-12T18:45:23;10.00;99.90
47090;DHT22;32840;52.516;13.294;2023-02-12T18:48:08;9.90;99.90
47090;DHT22;32840;52.516;13.294;2023-02-12T18:50:59;9.90;99.90
47090;DHT22;32840;52.516;13.294;2023-02-12T18:53:45;9.90;99.90
47090;DHT22;32840;52.516;13.294;2023-02-12T18:56:33;10.00;99.90
47090;DHT22;32840;52.516;13.294;2023-02-12T18:59:18;10.00;99.90
47090;DHT22;32840;52.516;13.294;2023-02-12T19:02:04;10.00;99.90
47090;DHT22;32840;52.516;13.294;2023-02-12T19:04:50;10.00;99.90
47090;DHT22;32840;52.516;13.294;2023-02-12T19:07:35;9.90;99.90
47090;DHT22;32840;52.516;13.294;2023-02-12T19:10:20;10.00;99.90
47090;DHT22;32840;52.516;13.294;2023-02-12T19:13:05;10.00;99.90
47090;DHT22;32840;52.516;13.294;2023-02-12T19:15:50;10.00;99.90
47090;DHT22;32840;52.516;13.294;2023-02-12T19:18:37;10.00;99.90
47090;DHT22;32840;52.516;13.294;2023-02-12T19:21:22;10.00;99.90
47090;DHT22;32840;52.516;13.294;2023-02-12T19:24:13;10.00;99.90
47090;DHT22;32840;52.516;13.294;2023-02-12T19:26:59;9.90;99.90
47090;DHT22;32840;52.516;13.294;2023-02-12T19:29:43;10.00;99.90
47090;DHT22;32840;52.516;13.294;2023-02-12T19:32:29;10.00;99.90
47090;DHT22;32840;52.516;13.294;2023-02-12T19:35:14;10.00;99.90
47090;DHT22;32840;52.516;13.294;2023-02-12T19:37:58;10.00;99.90
47090;DHT22;32840;52.516;13.294;2023-02-12T19:40:44;9.90;99.90
47090;DHT22;32840;52.516;13.294;2023-02-12T19:43:29;9.80;99.90
47090;DHT22;32840;52.516;13.294;2023-02-12T19:46:16;9.80;99.90
47090;DHT22;32840;52.516;13.294;2023-02-12T19:49:02;9.90;99.90
47090;DHT22;32840;52.516;13.294;2023-02-12T19:51:50;9.90;99.90
47090;DHT22;32840;52.516;13.294;2023-02-12T19:54:35;9.80;99.90
47090;DHT22;32840;52.516;13.294;2023-02-12T19:57:20;9.70;99.90
47090;DHT22;32840;52.516;13.294;2023-02-12T20:00:06;9.80;99.90
47090;DHT22;32840;52.516;13.294;2023-02-12T20:02:51;9.70;99.90
47090;DHT22;32840;52.516;13.294;2023-02-12T20:05:36;9.70;99.90
47090;DHT22;32840;52.516;13.294;2023-02-12T20:08:31;9.80;99.90
47090;DHT22;32840;52.516;13.294;2023-02-12T20:11:18;9.80;99.90